createdAt,value
2022-12-19T00:00:00.101Z,-4.19
2022-12-19T00:05:00.210Z,-4.19
2022-12-19T00:10:00.096Z,-4.13
2022-12-19T00:15:00.100Z,-4.13
2022-12-19T00:20:00.098Z,-4.25
2022-12-19T00:25:00.211Z,-4.25
2022-12-19T00:30:00.088Z,-4.19
2022-12-19T00:35:00.083Z,-4.13
2022-12-19T00:40:00.129Z,-4.06
2022-12-19T00:45:00.218Z,-4.06
2022-12-19T00:50:00.079Z,-4
2022-12-19T00:55:00.177Z,-4
2022-12-19T01:00:00.139Z,-4
2022-12-19T01:05:00.207Z,-4
2022-12-19T01:10:00.111Z,-4
2022-12-19T01:15:02.961Z,-4
2022-12-19T01:20:00.079Z,-4
2022-12-19T01:25:00.207Z,-3.94
2022-12-19T01:30:00.087Z,-3.94
2022-12-19T01:35:00.095Z,-3.88
2022-12-19T01:40:00.123Z,-3.81
2022-12-19T01:45:00.221Z,-3.75
2022-12-19T01:50:00.093Z,-3.69
2022-12-19T01:55:00.072Z,-3.63
2022-12-19T02:00:00.074Z,-3.63
2022-12-19T02:05:00.179Z,-3.44
2022-12-19T02:10:00.067Z,-3.38
2022-12-19T02:15:02.897Z,-3.19
2022-12-19T02:20:00.078Z,-3.13
2022-12-19T02:25:00.183Z,-3
2022-12-19T02:30:00.081Z,-2.94
2022-12-19T02:35:00.090Z,-2.81
2022-12-19T02:40:00.065Z,-2.63
2022-12-19T02:45:00.223Z,-2.38
2022-12-19T02:50:00.114Z,-2.31
2022-12-19T02:55:00.106Z,-2.06
2022-12-19T03:00:00.114Z,-1.75
2022-12-19T03:05:00.217Z,-1.5
2022-12-19T03:10:00.104Z,-1.13
2022-12-19T03:15:00.141Z,-0.88
2022-12-19T03:20:00.097Z,-0.56
2022-12-19T03:25:00.201Z,-0.25
2022-12-19T03:30:00.141Z,-0.13
2022-12-19T03:35:00.109Z,-0.13
2022-12-19T03:40:00.165Z,-0.13
2022-12-19T03:45:00.234Z,-0.19
2022-12-19T03:50:00.123Z,-0.31
2022-12-19T03:55:00.118Z,-0.38
2022-12-19T04:00:00.149Z,-0.44
2022-12-19T04:05:00.221Z,-0.44
2022-12-19T04:10:00.113Z,-0.5
2022-12-19T04:15:00.101Z,-0.5
2022-12-19T04:20:00.123Z,-0.56
2022-12-19T04:25:00.225Z,-0.56
2022-12-19T04:30:00.118Z,-0.63
2022-12-19T04:35:00.123Z,-0.69
2022-12-19T04:40:00.120Z,-0.75
2022-12-19T04:45:00.241Z,-0.81
2022-12-19T04:50:00.130Z,-0.88
2022-12-19T04:55:00.108Z,-0.94
2022-12-19T05:00:00.132Z,-0.94
2022-12-19T05:05:00.202Z,-0.94
2022-12-19T05:10:00.145Z,-0.88
2022-12-19T05:15:00.114Z,-0.75
2022-12-19T05:20:00.130Z,-0.69
2022-12-19T05:25:00.251Z,-0.63
2022-12-19T05:30:00.140Z,-0.63
2022-12-19T05:35:00.095Z,-0.56
2022-12-19T05:40:00.115Z,-0.5
2022-12-19T05:45:00.211Z,-0.44
2022-12-19T05:50:00.144Z,-0.44
2022-12-19T05:55:00.112Z,-0.38
2022-12-19T06:00:00.173Z,-0.38
2022-12-19T06:05:00.207Z,-0.44
2022-12-19T06:10:00.123Z,-0.44
2022-12-19T06:15:00.115Z,-0.56
2022-12-19T06:20:00.178Z,-0.5
2022-12-19T06:25:00.200Z,-0.5
2022-12-19T06:30:00.127Z,-0.5
2022-12-19T06:35:04.525Z,-0.5
2022-12-19T06:40:00.103Z,-0.5
2022-12-19T06:45:00.291Z,-0.5
2022-12-19T06:50:00.156Z,-0.5
2022-12-19T06:55:00.087Z,-0.5
2022-12-19T07:00:00.133Z,-0.5
2022-12-19T07:05:00.229Z,-0.5
2022-12-19T07:10:00.099Z,-0.5
2022-12-19T07:15:00.128Z,-0.44
2022-12-19T07:20:00.105Z,-0.44
2022-12-19T07:25:00.274Z,-0.38
2022-12-19T07:30:00.154Z,-0.31
2022-12-19T07:35:00.100Z,-0.25
2022-12-19T07:40:00.118Z,-0.13
2022-12-19T07:45:00.127Z,-0.13
2022-12-19T07:50:00.167Z,-0.06
2022-12-19T07:55:00.110Z,0
2022-12-19T08:00:00.135Z,0.13
2022-12-19T08:05:00.193Z,0.19
2022-12-19T08:10:00.114Z,0.19
2022-12-19T08:15:00.112Z,0.31
2022-12-19T08:20:00.141Z,0.38
2022-12-19T08:25:00.230Z,0.5
2022-12-19T08:30:00.145Z,0.56
2022-12-19T08:35:00.100Z,0.63
2022-12-19T08:40:00.109Z,0.69
2022-12-19T08:45:00.179Z,0.81
2022-12-19T08:50:00.134Z,0.88
2022-12-19T08:55:00.102Z,0.94
2022-12-19T09:00:00.129Z,0.94
2022-12-19T09:05:59.123Z,1
2022-12-19T09:10:00.136Z,0.94
2022-12-19T09:15:00.123Z,0.94
2022-12-19T09:20:00.122Z,0.88
2022-12-19T09:25:00.239Z,0.88
2022-12-19T09:30:00.124Z,0.88
2022-12-19T09:35:00.111Z,0.88
2022-12-19T09:40:00.135Z,0.88
2022-12-19T09:45:00.290Z,0.94
2022-12-19T09:50:00.140Z,0.88
2022-12-19T09:55:00.121Z,0.81
2022-12-19T10:00:00.187Z,0.75
2022-12-19T10:05:04.910Z,0.63
2022-12-19T10:11:25.111Z,0.5
2022-12-19T10:15:00.141Z,0.44
2022-12-19T10:20:00.140Z,0.38
2022-12-19T10:25:02.025Z,0.31
2022-12-19T10:30:00.143Z,0.25
2022-12-19T10:35:00.120Z,0.25
2022-12-19T10:40:00.124Z,0.25
2022-12-19T10:45:00.227Z,0.25
2022-12-19T10:50:03.937Z,0.31
2022-12-19T10:55:00.148Z,0.31
2022-12-19T11:00:00.201Z,0.38
2022-12-19T11:05:00.429Z,0.44
2022-12-19T11:10:12.395Z,0.5
2022-12-19T11:16:44.913Z,0.5
2022-12-19T11:25:28.487Z,0.56
2022-12-19T11:29:28.626Z,0.56
2022-12-19T11:35:00.105Z,0.63
2022-12-19T11:40:00.135Z,0.63
2022-12-19T11:45:00.242Z,0.69
2022-12-19T11:50:00.111Z,0.69
2022-12-19T11:55:00.153Z,0.69
2022-12-19T12:00:04.812Z,0.75
2022-12-19T12:05:00.323Z,0.75
2022-12-19T12:12:25.805Z,0.75
2022-12-19T12:21:00.273Z,0.81
2022-12-19T12:27:26.105Z,0.81
2022-12-19T12:31:34.874Z,0.88
2022-12-19T12:31:35.657Z,0.81
2022-12-19T12:36:48.672Z,0.88
2022-12-19T12:40:00.106Z,0.94
2022-12-19T12:45:00.140Z,0.94
2022-12-19T12:50:00.116Z,0.94
2022-12-19T12:55:00.109Z,0.94
2022-12-19T13:00:00.188Z,0.94
2022-12-19T13:05:00.142Z,1
2022-12-19T13:10:00.128Z,1
2022-12-19T13:15:00.134Z,1.06
2022-12-19T13:20:00.140Z,1.06
2022-12-19T13:25:00.164Z,1.13
2022-12-19T13:30:00.233Z,1.13
2022-12-19T13:35:04.022Z,1.13
2022-12-19T13:40:10.728Z,1.13
2022-12-19T13:45:00.149Z,1.13
2022-12-19T13:50:00.146Z,1.19
2022-12-19T13:55:00.108Z,1.19
2022-12-19T14:00:01.217Z,1.19
2022-12-19T14:05:00.160Z,1.19
2022-12-19T14:11:25.210Z,1.25
2022-12-19T14:15:13.454Z,1.31
2022-12-19T14:20:06.820Z,1.31
2022-12-19T14:25:01.257Z,1.38
2022-12-19T14:30:27.084Z,1.38
2022-12-19T14:35:29.567Z,1.38
2022-12-19T14:40:00.140Z,1.44
2022-12-19T14:50:17.003Z,1.44
2022-12-19T14:53:52.861Z,1.5
2022-12-19T14:56:12.182Z,1.5
2022-12-19T15:00:00.123Z,1.5
2022-12-19T15:05:00.274Z,1.56
2022-12-19T15:11:02.310Z,1.56
2022-12-19T15:15:00.364Z,1.56
2022-12-19T15:20:00.329Z,1.56
2022-12-19T15:25:00.122Z,1.56
2022-12-19T15:30:00.225Z,1.63
2022-12-19T15:35:00.099Z,1.63
2022-12-19T15:40:00.153Z,1.63
2022-12-19T15:45:00.187Z,1.63
2022-12-19T15:50:00.147Z,1.69
2022-12-19T15:55:00.115Z,1.69
2022-12-19T16:00:00.134Z,1.69
2022-12-19T16:05:04.048Z,1.75
2022-12-19T16:10:00.126Z,1.75
2022-12-19T16:15:00.142Z,1.75
2022-12-19T16:20:00.177Z,1.81
2022-12-19T16:25:00.245Z,1.81
2022-12-19T16:30:00.179Z,1.88
2022-12-19T16:35:00.101Z,1.88
2022-12-19T16:40:00.157Z,1.88
2022-12-19T16:45:00.148Z,1.88
2022-12-19T16:50:00.141Z,1.88
2022-12-19T16:55:00.134Z,1.94
2022-12-19T17:00:00.204Z,2
2022-12-19T17:05:00.180Z,2
2022-12-19T17:10:00.193Z,2
2022-12-19T17:15:00.110Z,2.06
2022-12-19T17:20:00.151Z,2.13
2022-12-19T17:25:00.216Z,2.19
2022-12-19T17:30:00.165Z,2.19
2022-12-19T17:35:00.204Z,2.19
2022-12-19T17:40:00.154Z,2.25
2022-12-19T17:45:00.186Z,2.25
2022-12-19T17:50:00.143Z,2.31
2022-12-19T17:55:00.139Z,2.31
2022-12-19T18:00:00.180Z,2.31
2022-12-19T18:05:00.160Z,2.25
2022-12-19T18:10:00.157Z,2.31
2022-12-19T18:15:00.150Z,2.25
2022-12-19T18:20:00.167Z,2.31
2022-12-19T18:25:00.133Z,2.31
2022-12-19T18:30:00.171Z,2.31
2022-12-19T18:35:00.131Z,2.38
2022-12-19T18:40:00.137Z,2.38
2022-12-19T18:45:00.152Z,2.38
2022-12-19T18:50:00.179Z,2.38
2022-12-19T18:55:00.170Z,2.44
2022-12-19T19:00:00.166Z,2.44
2022-12-19T19:05:00.228Z,2.44
2022-12-19T19:10:00.085Z,2.44
2022-12-19T19:15:00.120Z,2.44
2022-12-19T19:20:00.115Z,2.5
2022-12-19T19:25:00.159Z,2.5
2022-12-19T19:30:00.115Z,2.56
2022-12-19T19:35:00.115Z,2.56
2022-12-19T19:40:00.196Z,2.56
2022-12-19T19:45:00.162Z,2.56
2022-12-19T19:50:00.172Z,2.56
2022-12-19T19:55:00.119Z,2.56
2022-12-19T20:00:00.127Z,2.56
2022-12-19T20:05:00.151Z,2.56
2022-12-19T20:10:00.124Z,2.63
2022-12-19T20:15:00.109Z,2.69
2022-12-19T20:20:00.097Z,2.69
2022-12-19T20:25:00.193Z,2.75
2022-12-19T20:30:00.152Z,2.81
2022-12-19T20:35:00.107Z,2.81
2022-12-19T20:40:00.160Z,2.81
2022-12-19T20:45:00.206Z,2.81
2022-12-19T20:50:00.110Z,2.81
2022-12-19T20:55:00.159Z,2.88
2022-12-19T21:00:00.160Z,2.88
2022-12-19T21:05:00.272Z,2.94
2022-12-19T21:10:00.149Z,2.94
2022-12-19T21:15:00.128Z,2.94
2022-12-19T21:20:00.124Z,2.94
2022-12-19T21:25:00.186Z,2.94
2022-12-19T21:30:00.237Z,3
2022-12-19T21:35:00.117Z,3
2022-12-19T21:40:00.122Z,3
2022-12-19T21:45:00.146Z,3.06
2022-12-19T21:50:00.110Z,3.13
2022-12-19T21:55:00.133Z,3.06
2022-12-19T22:00:00.185Z,3.19
2022-12-19T22:05:00.173Z,3.25
2022-12-19T22:10:00.129Z,3.31
2022-12-19T22:15:00.100Z,3.44
2022-12-19T22:20:00.142Z,3.44
2022-12-19T22:25:00.174Z,3.38
2022-12-19T22:30:03.478Z,3.38
2022-12-19T22:35:00.133Z,3.31
2022-12-19T22:40:00.383Z,3.31
2022-12-19T22:45:00.141Z,3.31
2022-12-19T22:50:00.105Z,3.38
2022-12-19T22:55:00.134Z,3.44
2022-12-19T23:00:00.184Z,3.38
2022-12-19T23:05:00.158Z,3.31
2022-12-19T23:10:00.118Z,3.25
2022-12-19T23:15:00.117Z,3.25
2022-12-19T23:20:00.177Z,3.31
2022-12-19T23:25:00.153Z,3.31
2022-12-19T23:30:00.134Z,3.38
2022-12-19T23:35:00.123Z,3.56
2022-12-19T23:40:00.136Z,3.63
2022-12-19T23:45:00.166Z,3.69
2022-12-19T23:50:00.163Z,3.69
2022-12-19T23:55:00.135Z,3.69
